Time;durP1;ratioP1;P1;durP2;ratioP2;P2;SDS_P1;SDS_P2;PMS_P1;PMS_P2;Temp;Humidity;BMP_temperature;BMP_pressure;BME280_temperature;BME280_humidity;BME280_pressure;Samples;Min_cycle;Max_cycle;Signal;HPM_P1;HPM_P2
2022/04/30 00:00:21;;;;;;;7.27;4.37;;;20.70;44.70;;;;;;5010073;28;90007;-68
2022/04/30 00:02:49;;;;;;;5.60;4.03;;;20.70;44.70;;;;;;5003814;28;88246;-68
2022/04/30 00:05:19;;;;;;;4.70;3.73;;;20.70;44.60;;;;;;5002814;28;88604;-68
2022/04/30 00:07:47;;;;;;;5.40;3.60;;;20.70;44.70;;;;;;5004387;28;90332;-68
2022/04/30 00:10:15;;;;;;;6.90;3.83;;;20.70;44.60;;;;;;5021785;28;89195;-68
2022/04/30 00:12:44;;;;;;;4.87;3.33;;;20.70;44.60;;;;;;5021438;28;88938;-68
2022/04/30 00:15:12;;;;;;;7.67;3.80;;;20.70;44.60;;;;;;5021899;28;88359;-68
2022/04/30 00:17:40;;;;;;;5.53;3.57;;;20.70;44.60;;;;;;5011693;28;90702;-68
2022/04/30 00:20:08;;;;;;;3.50;2.80;;;20.70;44.60;;;;;;5002033;28;90001;-69
2022/04/30 00:22:37;;;;;;;6.03;3.27;;;20.70;44.60;;;;;;5011214;28;88485;-68
2022/04/30 00:25:07;;;;;;;4.30;3.03;;;20.70;44.50;;;;;;5011969;28;88874;-68
2022/04/30 00:27:35;;;;;;;4.90;3.07;;;20.60;44.40;;;;;;5009514;28;90763;-68
2022/04/30 00:30:04;;;;;;;6.43;3.00;;;20.60;44.40;;;;;;5001408;28;89475;-68
2022/04/30 00:32:32;;;;;;;5.40;3.17;;;20.60;44.40;;;;;;5015785;28;88602;-69
2022/04/30 00:35:02;;;;;;;5.07;3.00;;;20.60;44.40;;;;;;5021386;28;88387;-68
2022/04/30 00:37:30;;;;;;;3.20;2.50;;;20.60;44.40;;;;;;5009943;28;90690;-69
2022/04/30 00:39:59;;;;;;;4.20;2.50;;;20.60;44.40;;;;;;5002794;28;91387;-68
2022/04/30 00:42:28;;;;;;;4.43;2.53;;;20.60;44.40;;;;;;5012870;28;89088;-68
2022/04/30 00:44:56;;;;;;;5.20;2.90;;;20.60;44.40;;;;;;5002304;28;88408;-69
2022/04/30 00:47:26;;;;;;;4.67;2.87;;;20.60;44.40;;;;;;5013069;28;89180;-68
2022/04/30 00:49:54;;;;;;;3.43;2.57;;;20.30;44.20;;;;;;5003772;28;90179;-68
2022/04/30 00:52:25;;;;;;;2.77;2.23;;;20.60;44.30;;;;;;5002554;28;88532;-68
2022/04/30 00:54:58;;;;;;;2.93;2.63;;;20.60;44.40;;;;;;5019594;28;88462;-68
2022/04/30 00:57:28;;;;;;;2.37;2.13;;;20.60;44.30;;;;;;5004128;28;90693;-68
2022/04/30 00:59:59;;;;;;;3.90;2.30;;;20.60;44.30;;;;;;5008071;28;89900;-68
2022/04/30 01:02:29;;;;;;;3.83;2.50;;;20.60;44.30;;;;;;5018960;28;88435;-68
2022/04/30 01:04:58;;;;;;;3.87;2.67;;;20.60;44.30;;;;;;5003120;28;88493;-69
2022/04/30 01:07:26;;;;;;;2.73;2.23;;;20.60;44.30;;;;;;5024737;28;90949;-68
2022/04/30 01:09:54;;;;;;;3.23;2.57;;;20.60;44.30;;;;;;5007903;27;89010;-68
2022/04/30 01:12:23;;;;;;;3.03;2.07;;;20.60;44.30;;;;;;5014368;28;88537;-68
2022/04/30 01:14:53;;;;;;;4.23;2.30;;;20.60;44.30;;;;;;5021461;28;89069;-68
2022/04/30 01:17:21;;;;;;;2.43;1.90;;;20.60;44.30;;;;;;5020322;28;90568;-68
2022/04/30 01:19:49;;;;;;;2.23;1.97;;;20.60;44.30;;;;;;5020731;28;90103;-68
2022/04/30 01:22:20;;;;;;;3.50;2.63;;;20.60;44.20;;;;;;5002149;28;88314;-68
2022/04/30 01:24:50;;;;;;;4.07;2.53;;;20.50;44.80;;;;;;5007783;28;88513;-66
2022/04/30 01:27:18;;;;;;;2.80;1.90;;;20.60;44.20;;;;;;5011003;28;93742;-65
2022/04/30 01:29:46;;;;;;;2.37;2.00;;;20.60;44.20;;;;;;5003995;28;90387;-66
2022/04/30 01:37:45;;;;;;;2.27;1.70;;;20.60;44.20;;;;;;5022052;28;90716;-67
2022/04/30 01:40:14;;;;;;;3.37;2.00;;;20.50;44.10;;;;;;5019185;28;90006;-65
2022/04/30 01:42:43;;;;;;;2.73;1.77;;;20.50;44.10;;;;;;5005287;28;88544;-65
2022/04/30 01:45:12;;;;;;;2.97;2.20;;;20.50;44.20;;;;;;5023552;28;88754;-66
2022/04/30 01:47:40;;;;;;;2.57;1.90;;;20.50;44.10;;;;;;5023583;28;88975;-65
2022/04/30 01:50:09;;;;;;;2.40;1.83;;;20.50;44.10;;;;;;5018555;28;92297;-66
2022/04/30 01:52:37;;;;;;;1.80;1.60;;;20.50;44.10;;;;;;5005461;28;88412;-66
2022/04/30 01:55:06;;;;;;;3.13;1.93;;;20.50;44.10;;;;;;5022105;28;88512;-66
2022/04/30 01:57:42;;;;;;;2.27;1.57;;;20.50;44.10;;;;;;5013975;28;89273;-66
2022/04/30 02:00:12;;;;;;;2.93;1.57;;;20.50;44.10;;;;;;5017480;28;91909;-65
2022/04/30 02:02:41;;;;;;;2.77;1.80;;;20.50;44.10;;;;;;5003875;28;88844;-67
2022/04/30 02:05:12;;;;;;;2.30;1.83;;;20.50;44.10;;;;;;5003633;28;88580;-65
2022/04/30 02:07:42;;;;;;;1.63;1.40;;;20.50;44.10;;;;;;5015232;28;92776;-66
2022/04/30 02:10:11;;;;;;;1.80;1.30;;;20.50;44.10;;;;;;5020348;28;88892;-66
2022/04/30 02:12:41;;;;;;;4.23;2.13;;;20.40;44.70;;;;;;5015672;28;88409;-66
2022/04/30 02:15:10;;;;;;;2.30;1.70;;;20.40;44.00;;;;;;5014243;28;88469;-66
2022/04/30 02:17:40;;;;;;;1.70;1.47;;;20.50;44.10;;;;;;5004774;28;92201;-66
2022/04/30 02:20:24;;;;;;;2.10;1.70;;;20.50;44.10;;;;;;5005711;28;89895;-67
2022/04/30 02:22:54;;;;;;;1.73;1.50;;;20.50;44.10;;;;;;5019445;28;88543;-66
2022/04/30 02:25:23;;;;;;;2.03;1.73;;;20.50;44.10;;;;;;5007721;28;88599;-67
2022/04/30 02:27:53;;;;;;;1.73;1.30;;;20.40;44.00;;;;;;5004521;28;89616;-66
2022/04/30 02:30:22;;;;;;;1.60;1.50;;;20.40;44.00;;;;;;5003609;28;89594;-66
2022/04/30 02:32:51;;;;;;;1.87;1.60;;;20.40;44.00;;;;;;5004320;28;88419;-66
2022/04/30 02:35:21;;;;;;;2.23;1.53;;;20.40;44.00;;;;;;5022867;28;88443;-66
2022/04/30 02:37:50;;;;;;;1.50;1.40;;;20.40;44.00;;;;;;5008000;28;90020;-66
2022/04/30 02:40:18;;;;;;;2.10;1.33;;;20.40;43.90;;;;;;5016544;28;90173;-66
2022/04/30 02:42:46;;;;;;;1.60;1.30;;;20.40;44.00;;;;;;5003190;28;88523;-66
2022/04/30 02:45:16;;;;;;;1.53;1.40;;;20.40;43.90;;;;;;5004024;28;88429;-66
2022/04/30 02:47:45;;;;;;;1.70;1.37;;;20.40;43.90;;;;;;5002773;28;90612;-66
2022/04/30 02:50:15;;;;;;;1.40;1.30;;;20.40;43.90;;;;;;5004535;28;90161;-65
2022/04/30 02:52:43;;;;;;;1.60;1.50;;;20.40;43.90;;;;;;5015278;28;89060;-66
2022/04/30 02:55:11;;;;;;;2.83;1.93;;;20.40;43.90;;;;;;5013124;28;88445;-66
2022/04/30 02:59:53;;;;;;;1.87;1.30;;;20.40;43.90;;;;;;5003687;28;89509;-66
2022/04/30 03:00:29;;;;;;;2.67;1.47;;;20.40;43.90;;;;;;5007259;28;90141;-66
2022/04/30 03:02:57;;;;;;;1.80;1.70;;;20.40;43.90;;;;;;5015507;28;88668;-66
2022/04/30 03:05:26;;;;;;;2.03;1.50;;;20.40;43.90;;;;;;5022451;28;88490;-66
2022/04/30 03:07:54;;;;;;;3.20;1.80;;;20.40;43.90;;;;;;5009620;28;93545;-66
2022/04/30 03:10:21;;;;;;;1.50;1.40;;;20.30;43.80;;;;;;5003936;28;89918;-66
2022/04/30 03:12:49;;;;;;;4.23;1.57;;;20.30;43.80;;;;;;5008444;28;88584;-66
2022/04/30 03:15:21;;;;;;;1.60;1.50;;;20.40;43.90;;;;;;5022832;28;89347;-65
2022/04/30 03:23:22;;;;;;;2.47;1.67;;;20.30;43.80;;;;;;5005713;28;88316;-66
2022/04/30 03:25:50;;;;;;;2.50;1.87;;;20.30;43.80;;;;;;5013664;28;89984;-65
2022/04/30 03:28:18;;;;;;;1.00;1.00;;;20.30;43.80;;;;;;5016735;28;89570;-66
2022/04/30 03:30:46;;;;;;;1.60;1.50;;;20.30;43.80;;;;;;5012670;28;89323;-67
2022/04/30 03:33:16;;;;;;;1.53;1.40;;;20.30;43.80;;;;;;5022261;28;88403;-66
2022/04/30 03:35:44;;;;;;;3.57;1.93;;;20.30;43.80;;;;;;5019169;28;88490;-66
2022/04/30 03:38:13;;;;;;;2.30;2.10;;;20.30;44.50;;;;;;5020554;28;90917;-66
2022/04/30 03:40:41;;;;;;;4.73;2.60;;;20.30;43.80;;;;;;5015524;28;90029;-66
2022/04/30 03:43:09;;;;;;;4.43;2.57;;;20.30;43.80;;;;;;5002238;28;88467;-66
2022/04/30 03:45:37;;;;;;;6.63;3.33;;;20.30;43.80;;;;;;5009735;28;88438;-66
2022/04/30 03:48:06;;;;;;;5.80;3.87;;;20.30;43.80;;;;;;5009189;28;91103;-66
2022/04/30 03:50:35;;;;;;;5.57;3.73;;;20.30;43.80;;;;;;5004142;28;88938;-66
2022/04/30 03:53:04;;;;;;;5.07;4.00;;;20.20;43.80;;;;;;5008624;28;88532;-66
2022/04/30 03:55:32;;;;;;;10.60;5.07;;;20.20;43.70;;;;;;5009502;28;88129;-66
2022/04/30 03:58:00;;;;;;;10.37;4.97;;;20.10;43.60;;;;;;5005117;28;93126;-66
2022/04/30 04:00:29;;;;;;;8.93;5.87;;;20.20;43.80;;;;;;5006683;28;89465;-64
2022/04/30 04:02:57;;;;;;;11.83;5.40;;;20.20;43.70;;;;;;5001533;28;88510;-64
2022/04/30 04:05:26;;;;;;;13.67;6.30;;;20.20;43.70;;;;;;5021203;28;88620;-65
2022/04/30 04:07:56;;;;;;;12.20;6.93;;;20.20;43.80;;;;;;5014746;28;90724;-65
2022/04/30 04:10:24;;;;;;;14.20;6.33;;;20.20;43.80;;;;;;5003065;28;89528;-65
2022/04/30 04:17:37;;;;;;;13.20;8.27;;;20.20;43.80;;;;;;5021856;28;88343;-64
2022/04/30 04:18:27;;;;;;;21.27;11.23;;;20.20;43.80;;;;;;5000180;28;90446;-64
2022/04/30 04:20:55;;;;;;;21.07;11.80;;;20.20;43.70;;;;;;5000429;28;89734;-66
2022/04/30 04:23:24;;;;;;;22.43;13.53;;;20.20;43.80;;;;;;5001269;28;88423;-66
2022/04/30 04:26:00;;;;;;;31.13;15.50;;;20.20;43.80;;;;;;5001183;28;88148;-65
2022/04/30 04:28:28;;;;;;;36.83;18.50;;;20.20;43.80;;;;;;4999417;28;89490;-66
2022/04/30 04:30:57;;;;;;;38.00;20.70;;;20.20;43.80;;;;;;4999893;28;89360;-65
2022/04/30 04:33:25;;;;;;;36.67;20.77;;;20.20;44.40;;;;;;5000025;28;88664;-66
2022/04/30 04:35:53;;;;;;;44.00;23.53;;;20.20;43.80;;;;;;5000602;28;88385;-65
2022/04/30 04:38:21;;;;;;;42.00;23.63;;;20.20;43.80;;;;;;5016477;28;91561;-65
2022/04/30 04:40:54;;;;;;;50.57;26.57;;;20.20;43.80;;;;;;5011705;28;92428;-63
2022/04/30 04:43:22;;;;;;;55.33;25.17;;;20.20;43.80;;;;;;5000181;28;88638;-66
2022/04/30 04:45:50;;;;;;;49.83;25.43;;;20.20;43.80;;;;;;5010685;28;88504;-66
2022/04/30 04:48:18;;;;;;;49.47;26.73;;;20.20;43.80;;;;;;5002819;28;90209;-65
2022/04/30 04:50:48;;;;;;;48.23;26.10;;;20.20;43.80;;;;;;5016000;28;92130;-65
2022/04/30 04:53:16;;;;;;;52.73;26.53;;;20.20;44.40;;;;;;5001251;28;88403;-68
2022/04/30 04:55:44;;;;;;;50.07;27.33;;;20.20;43.80;;;;;;5000235;28;88599;-68
2022/04/30 04:58:14;;;;;;;47.17;26.33;;;20.20;43.80;;;;;;5010071;28;90761;-68
2022/04/30 05:00:42;;;;;;;50.53;24.43;;;20.20;43.80;;;;;;5011004;28;90327;-68
2022/04/30 05:03:12;;;;;;;49.37;26.50;;;20.20;43.80;;;;;;5017835;28;88532;-68
2022/04/30 05:05:40;;;;;;;47.60;26.17;;;20.20;43.80;;;;;;5018704;28;88569;-69
2022/04/30 05:08:09;;;;;;;44.27;25.00;;;20.20;43.80;;;;;;5023176;28;89575;-66
2022/04/30 05:10:37;;;;;;;43.67;24.10;;;20.10;43.70;;;;;;5022828;28;91315;-68
2022/04/30 05:13:05;;;;;;;46.20;23.87;;;20.10;43.70;;;;;;5003830;28;88432;-68
2022/04/30 05:15:35;;;;;;;40.80;23.37;;;20.20;43.80;;;;;;5004266;28;88773;-68
2022/04/30 05:18:04;;;;;;;48.50;24.63;;;20.10;43.70;;;;;;5003030;28;88442;-68
2022/04/30 05:20:33;;;;;;;38.17;20.93;;;19.80;43.40;;;;;;5002910;28;92240;-68
2022/04/30 05:23:10;;;;;;;42.60;21.43;;;20.10;43.70;;;;;;5007240;28;88295;-67
2022/04/30 05:25:40;;;;;;;42.07;21.50;;;20.20;43.70;;;;;;5022976;28;88506;-68
2022/04/30 05:28:09;;;;;;;39.53;19.47;;;20.20;43.80;;;;;;5008420;28;89361;-68
2022/04/30 05:30:39;;;;;;;33.17;20.83;;;20.10;43.60;;;;;;5004011;28;88541;-68
2022/04/30 05:33:07;;;;;;;33.73;17.67;;;20.10;43.60;;;;;;5016838;28;88590;-66
2022/04/30 05:35:35;;;;;;;38.20;20.10;;;20.10;43.60;;;;;;5011284;28;88552;-68
2022/04/30 05:38:03;;;;;;;27.97;17.90;;;20.10;43.70;;;;;;5003858;28;89572;-68
2022/04/30 05:40:31;;;;;;;33.80;17.57;;;20.20;43.70;;;;;;5016251;28;90294;-68
2022/04/30 05:42:59;;;;;;;28.17;15.23;;;20.10;43.60;;;;;;5039160;27;88499;-68
2022/04/30 05:45:27;;;;;;;32.17;16.27;;;20.20;43.70;;;;;;5018790;28;88562;-68
2022/04/30 05:47:57;;;;;;;30.90;17.00;;;20.20;43.70;;;;;;5043766;28;93586;-69
2022/04/30 05:50:25;;;;;;;32.60;16.10;;;20.20;43.70;;;;;;5031635;27;90123;-68
2022/04/30 05:52:53;;;;;;;27.90;14.67;;;20.10;43.60;;;;;;5020417;28;88450;-69
2022/04/30 05:55:22;;;;;;;27.17;13.80;;;20.20;43.70;;;;;;5003186;28;88472;-69
2022/04/30 05:57:50;;;;;;;24.43;13.30;;;20.20;43.70;;;;;;5009395;28;90161;-68
2022/04/30 06:00:19;;;;;;;26.10;13.50;;;20.10;43.50;;;;;;5005712;28;92547;-69
2022/04/30 06:02:48;;;;;;;19.60;11.80;;;20.10;43.50;;;;;;5016785;28;88423;-68
2022/04/30 06:05:18;;;;;;;23.40;12.43;;;20.10;43.60;;;;;;5004495;28;88552;-68
2022/04/30 06:07:46;;;;;;;23.67;11.23;;;20.10;43.50;;;;;;5019347;28;88993;-67
2022/04/30 06:10:14;;;;;;;17.37;9.97;;;20.10;44.20;;;;;;5023551;28;88182;-67
2022/04/30 06:12:42;;;;;;;18.07;9.63;;;20.10;43.60;;;;;;5021536;28;88583;-67
2022/04/30 06:15:10;;;;;;;19.93;10.03;;;20.10;43.70;;;;;;5003567;28;88453;-67
2022/04/30 06:17:38;;;;;;;16.87;8.80;;;20.10;43.70;;;;;;5002537;28;90643;-68
2022/04/30 06:20:08;;;;;;;17.60;10.47;;;20.10;43.80;;;;;;5006612;28;89956;-67
2022/04/30 06:22:37;;;;;;;17.27;9.53;;;20.20;44.00;;;;;;5022684;28;88250;-69
2022/04/30 06:25:06;;;;;;;16.87;9.07;;;20.20;44.00;;;;;;5003058;28;88568;-66
2022/04/30 06:27:34;;;;;;;16.20;8.63;;;20.20;44.10;;;;;;5005316;28;89919;-67
2022/04/30 06:30:04;;;;;;;14.87;7.47;;;20.20;44.10;;;;;;5014378;28;89028;-67
2022/04/30 06:32:32;;;;;;;18.57;9.13;;;20.20;44.20;;;;;;5013737;28;88319;-67
2022/04/30 06:35:01;;;;;;;15.87;8.00;;;20.30;44.30;;;;;;5006870;28;88564;-68
2022/04/30 06:37:29;;;;;;;13.10;7.20;;;20.20;44.30;;;;;;5022682;28;91869;-67
2022/04/30 06:39:58;;;;;;;10.37;6.47;;;20.30;44.40;;;;;;5022274;28;89219;-68
2022/04/30 06:42:26;;;;;;;13.57;7.03;;;20.30;44.40;;;;;;5023668;28;88572;-68
2022/04/30 06:44:54;;;;;;;11.90;7.57;;;20.30;44.40;;;;;;5010330;28;88629;-68
2022/04/30 06:47:22;;;;;;;11.03;6.37;;;20.30;44.50;;;;;;5002918;28;90942;-68
2022/04/30 06:49:51;;;;;;;9.83;5.37;;;20.30;44.50;;;;;;5012819;28;89453;-68
2022/04/30 06:52:19;;;;;;;10.37;5.60;;;20.30;44.50;;;;;;5003126;28;88440;-68
2022/04/30 06:57:34;;;;;;;11.70;6.10;;;20.40;44.60;;;;;;5025443;27;90581;-67
2022/04/30 07:01:24;;;;;;;12.17;6.67;;;20.30;44.50;;;;;;5023013;28;90057;-69
2022/04/30 07:02:52;;;;;;;7.80;4.43;;;20.30;44.60;;;;;;5003112;28;88370;-68
2022/04/30 07:05:20;;;;;;;8.10;5.10;;;20.40;44.70;;;;;;5022516;28;88629;-71
2022/04/30 07:07:48;;;;;;;9.90;4.63;;;20.40;44.70;;;;;;5022616;28;91358;-66
2022/04/30 07:10:16;;;;;;;8.67;5.03;;;20.40;44.80;;;;;;5022042;28;90390;-66
2022/04/30 07:12:46;;;;;;;11.23;5.03;;;20.40;44.80;;;;;;5021274;28;88455;-66
2022/04/30 07:15:14;;;;;;;7.70;4.80;;;20.40;44.90;;;;;;5021558;28;88800;-65
2022/04/30 07:17:42;;;;;;;6.93;4.73;;;20.40;44.90;;;;;;5022201;28;90707;-65
2022/04/30 07:20:11;;;;;;;8.37;5.10;;;20.40;45.00;;;;;;5021775;28;90497;-65
2022/04/30 07:22:39;;;;;;;6.10;4.00;;;20.40;45.00;;;;;;5020631;28;88320;-65
2022/04/30 07:25:08;;;;;;;6.33;3.87;;;20.40;45.00;;;;;;5001496;28;88554;-67
2022/04/30 07:27:36;;;;;;;7.90;4.40;;;20.40;45.00;;;;;;5002195;28;93005;-66
2022/04/30 07:30:07;;;;;;;5.27;3.50;;;20.40;45.00;;;;;;5001890;28;92714;-65
2022/04/30 07:32:35;;;;;;;9.50;3.97;;;20.40;45.00;;;;;;5002791;28;88389;-65
2022/04/30 07:35:04;;;;;;;6.77;3.50;;;20.50;45.00;;;;;;5002215;28;88416;-66
2022/04/30 07:37:32;;;;;;;7.43;3.33;;;20.40;44.90;;;;;;5001831;28;90710;-66
2022/04/30 07:40:00;;;;;;;6.93;3.60;;;20.40;44.90;;;;;;5000920;28;90148;-65
2022/04/30 07:42:28;;;;;;;9.43;3.40;;;20.50;45.00;;;;;;5001456;28;88507;-65
2022/04/30 07:44:59;;;;;;;4.97;3.03;;;20.50;45.00;;;;;;5021029;28;88620;-66
2022/04/30 07:47:29;;;;;;;11.27;3.57;;;20.50;45.10;;;;;;5021734;28;90725;-65
2022/04/30 07:49:57;;;;;;;3.27;2.83;;;20.50;45.80;;;;;;5021533;28;88840;-65
2022/04/30 07:52:25;;;;;;;4.93;3.00;;;20.50;45.20;;;;;;5020159;28;88635;-66
2022/04/30 07:54:54;;;;;;;5.40;3.17;;;20.50;45.80;;;;;;5015054;28;88640;-64
2022/04/30 07:57:22;;;;;;;6.53;3.83;;;20.50;45.10;;;;;;5021658;28;90198;-65
2022/04/30 07:59:50;;;;;;;5.13;3.40;;;20.60;45.20;;;;;;5021842;28;88329;-64
2022/04/30 08:02:18;;;;;;;9.33;4.20;;;20.60;45.10;;;;;;5008751;28;88394;-65
2022/04/30 08:04:48;;;;;;;6.93;3.80;;;20.60;45.10;;;;;;5017059;28;88660;-65
2022/04/30 08:07:16;;;;;;;5.47;3.57;;;20.60;45.10;;;;;;5020965;28;90661;-66
2022/04/30 08:09:44;;;;;;;6.43;3.50;;;20.60;45.10;;;;;;5021482;28;90219;-66
2022/04/30 08:12:13;;;;;;;7.30;3.90;;;20.70;45.20;;;;;;5016351;28;88516;-65
2022/04/30 08:14:43;;;;;;;8.73;3.80;;;20.70;45.20;;;;;;5017796;28;88609;-64
2022/04/30 08:17:13;;;;;;;6.50;4.03;;;20.70;45.20;;;;;;5021300;28;89686;-65
2022/04/30 08:19:41;;;;;;;7.53;4.70;;;20.70;45.20;;;;;;5021211;28;92010;-65
2022/04/30 08:22:13;;;;;;;7.20;4.23;;;20.70;45.20;;;;;;5018071;28;88255;-65
2022/04/30 08:24:42;;;;;;;7.70;4.40;;;20.70;45.20;;;;;;5002727;28;88499;-65
2022/04/30 08:27:11;;;;;;;8.63;4.40;;;20.80;45.30;;;;;;5000734;28;90497;-65
2022/04/30 08:29:39;;;;;;;7.03;4.40;;;20.70;45.20;;;;;;5001188;28;91042;-64
2022/04/30 08:32:07;;;;;;;7.73;4.00;;;20.80;45.30;;;;;;5003103;28;88423;-65
2022/04/30 08:34:35;;;;;;;7.67;4.23;;;20.70;45.20;;;;;;5001460;28;88581;-65
2022/04/30 08:37:04;;;;;;;6.07;4.10;;;20.70;45.20;;;;;;5001343;28;90629;-65
2022/04/30 08:39:36;;;;;;;6.30;4.87;;;20.70;45.20;;;;;;5001293;28;89581;-66
2022/04/30 08:42:05;;;;;;;7.40;3.70;;;20.80;45.20;;;;;;5001055;28;88389;-66
2022/04/30 08:44:36;;;;;;;9.00;4.80;;;20.80;45.20;;;;;;5014690;27;88644;-65
2022/04/30 08:47:05;;;;;;;8.57;4.53;;;20.80;45.20;;;;;;5001134;28;91733;-65
2022/04/30 08:49:34;;;;;;;8.73;5.10;;;20.80;45.10;;;;;;5000885;28;89117;-66
2022/04/30 08:52:02;;;;;;;6.30;3.70;;;20.80;45.10;;;;;;5001081;28;88314;-65
2022/04/30 08:54:30;;;;;;;12.23;4.83;;;20.80;45.10;;;;;;5002314;28;88655;-65
2022/04/30 08:56:59;;;;;;;8.70;4.23;;;20.80;45.80;;;;;;5001041;28;89635;-66
2022/04/30 09:03:31;;;;;;;8.87;4.40;;;20.80;45.30;;;;;;5002713;28;88577;-65
2022/04/30 09:06:27;;;;;;;7.47;4.80;;;20.80;45.30;;;;;;5006836;28;90261;-65
2022/04/30 09:08:55;;;;;;;5.43;3.50;;;20.80;45.40;;;;;;5040845;27;90514;-66
2022/04/30 09:11:29;;;;;;;6.27;4.20;;;20.80;45.60;;;;;;5013936;28;89576;-65
2022/04/30 09:13:59;;;;;;;7.80;4.53;;;20.70;45.50;;;;;;5010797;28;88285;-66
2022/04/30 09:16:27;;;;;;;9.77;4.90;;;20.80;45.70;;;;;;5020920;28;88431;-65
2022/04/30 09:19:01;;;;;;;10.90;4.07;;;20.80;45.70;;;;;;5020331;28;93298;-66
2022/04/30 09:21:29;;;;;;;9.10;4.50;;;20.80;45.70;;;;;;5020007;28;89932;-66
2022/04/30 09:24:03;;;;;;;6.87;4.30;;;20.80;45.80;;;;;;5021187;28;88350;-65
2022/04/30 09:26:39;;;;;;;7.50;3.93;;;20.70;45.80;;;;;;5020504;28;88468;-66
2022/04/30 09:29:21;;;;;;;8.20;4.50;;;20.80;45.90;;;;;;5020214;28;92514;-65
2022/04/30 09:31:50;;;;;;;6.73;3.70;;;20.80;46.60;;;;;;5020337;28;90006;-65
2022/04/30 09:39:50;;;;;;;6.03;3.93;;;20.90;45.90;;;;;;5020637;28;88927;-66
2022/04/30 09:42:18;;;;;;;5.70;3.97;;;20.90;45.90;;;;;;5020250;28;89755;-65
2022/04/30 09:44:47;;;;;;;5.80;3.00;;;20.90;45.90;;;;;;5020132;28;88398;-66
2022/04/30 09:47:15;;;;;;;9.57;3.40;;;20.90;45.80;;;;;;5021366;28;88465;-66
2022/04/30 09:55:16;;;;;;;5.20;3.20;;;21.00;45.90;;;;;;5003588;28;88468;-66
2022/04/30 09:57:44;;;;;;;5.97;3.40;;;21.00;45.80;;;;;;5003722;28;88486;-65
2022/04/30 10:00:15;;;;;;;5.77;3.83;;;21.00;45.80;;;;;;5024325;27;89977;-66
2022/04/30 10:02:44;;;;;;;6.93;3.90;;;21.00;45.80;;;;;;5044044;28;90474;-66
2022/04/30 10:05:13;;;;;;;4.10;3.43;;;20.90;45.70;;;;;;5044126;27;88363;-65
2022/04/30 10:07:41;;;;;;;7.97;3.73;;;20.90;45.70;;;;;;5043818;28;88410;-66
2022/04/30 10:10:13;;;;;;;7.03;2.87;;;21.00;46.50;;;;;;5044085;28;91733;-66
2022/04/30 10:12:43;;;;;;;6.20;3.47;;;20.90;45.80;;;;;;5043128;27;89057;-65
2022/04/30 10:15:17;;;;;;;3.63;2.70;;;20.90;45.80;;;;;;5043984;28;88394;-66
2022/04/30 10:17:47;;;;;;;4.00;3.60;;;20.90;45.80;;;;;;5043532;27;88543;-66
2022/04/30 10:20:23;;;;;;;4.07;2.43;;;20.90;45.80;;;;;;5043550;28;93060;-65
2022/04/30 10:22:51;;;;;;;3.93;2.83;;;20.90;45.80;;;;;;5043800;27;90662;-66
2022/04/30 10:25:30;;;;;;;4.53;2.90;;;20.90;45.70;;;;;;5043440;27;88619;-64
2022/04/30 10:27:58;;;;;;;5.53;3.50;;;20.90;45.70;;;;;;5039401;27;88493;-65
2022/04/30 10:30:28;;;;;;;6.53;3.60;;;21.00;45.70;;;;;;5007882;28;92500;-65
2022/04/30 10:32:59;;;;;;;4.20;3.13;;;21.00;45.80;;;;;;5019978;28;90151;-65
2022/04/30 10:35:43;;;;;;;5.53;3.40;;;21.00;45.70;;;;;;5015646;27;88397;-64
2022/04/30 10:38:12;;;;;;;6.87;3.70;;;20.90;45.60;;;;;;5014899;28;88456;-65
2022/04/30 10:40:42;;;;;;;8.30;3.83;;;21.00;45.70;;;;;;5002923;28;89742;-64
2022/04/30 10:43:19;;;;;;;9.80;3.97;;;20.90;45.70;;;;;;5004111;28;90609;-65
2022/04/30 10:45:49;;;;;;;7.67;4.27;;;20.90;45.70;;;;;;5014679;28;88476;-65
2022/04/30 10:48:18;;;;;;;7.03;4.33;;;20.90;45.70;;;;;;5016268;28;88472;-65
2022/04/30 10:50:47;;;;;;;7.63;4.80;;;21.00;45.80;;;;;;5022379;28;89523;-65
2022/04/30 10:53:15;;;;;;;6.60;5.20;;;21.00;45.90;;;;;;5020625;28;93155;-65
2022/04/30 10:55:43;;;;;;;8.23;5.30;;;21.00;45.90;;;;;;5023361;28;88277;-65
2022/04/30 10:58:13;;;;;;;9.27;5.33;;;21.00;45.90;;;;;;5022616;28;88708;-66
2022/04/30 11:00:41;;;;;;;8.53;5.10;;;21.00;45.90;;;;;;5012729;28;93621;-65
2022/04/30 11:03:11;;;;;;;9.60;5.77;;;21.00;45.90;;;;;;5005772;28;90097;-64
2022/04/30 11:05:41;;;;;;;9.87;5.97;;;21.00;45.90;;;;;;5004985;28;88380;-64
2022/04/30 11:08:09;;;;;;;12.80;6.47;;;21.10;46.00;;;;;;5002488;28;88606;-64
2022/04/30 11:10:37;;;;;;;13.10;7.77;;;21.10;46.00;;;;;;5002859;28;90690;-65
2022/04/30 11:13:06;;;;;;;13.47;7.83;;;21.10;46.00;;;;;;5002793;28;91114;-64
2022/04/30 11:15:34;;;;;;;11.40;6.90;;;21.10;46.00;;;;;;5004423;28;88474;-64
2022/04/30 11:18:03;;;;;;;11.53;8.07;;;21.10;45.90;;;;;;5008701;28;88605;-64
2022/04/30 11:20:33;;;;;;;15.27;8.07;;;21.10;45.90;;;;;;5007536;28;89620;-64
2022/04/30 11:23:01;;;;;;;14.70;7.83;;;21.20;45.90;;;;;;5015795;28;92491;-65
2022/04/30 11:25:36;;;;;;;12.23;9.20;;;21.20;45.90;;;;;;5016535;28;88890;-65
2022/04/30 11:28:07;;;;;;;14.47;8.20;;;21.20;46.00;;;;;;5015628;28;88668;-65
2022/04/30 11:30:37;;;;;;;16.30;8.20;;;21.20;46.00;;;;;;5016737;28;93739;-65
2022/04/30 11:33:05;;;;;;;17.27;8.97;;;21.10;46.00;;;;;;5005057;28;89940;-65
2022/04/30 11:35:35;;;;;;;17.97;9.30;;;21.20;46.00;;;;;;5007863;28;88544;-64
2022/04/30 11:38:03;;;;;;;15.47;8.57;;;21.10;46.00;;;;;;5019782;28;88572;-64
2022/04/30 11:40:32;;;;;;;16.30;8.67;;;21.20;46.00;;;;;;5016947;28;91841;-64
2022/04/30 11:43:01;;;;;;;15.17;9.10;;;21.10;46.00;;;;;;5015307;28;89212;-66
2022/04/30 11:45:30;;;;;;;13.40;9.17;;;21.10;46.00;;;;;;5020570;28;88383;-64
2022/04/30 11:47:58;;;;;;;18.67;9.43;;;21.10;45.90;;;;;;5020567;28;88658;-64
2022/04/30 11:50:28;;;;;;;16.33;9.60;;;21.20;46.00;;;;;;5020075;28;92991;-65
2022/04/30 11:52:58;;;;;;;15.17;9.30;;;21.20;45.90;;;;;;5007440;28;91517;-65
2022/04/30 11:55:26;;;;;;;17.50;9.77;;;21.10;45.80;;;;;;5001087;28;88763;-65
2022/04/30 11:57:54;;;;;;;15.40;9.13;;;21.20;45.90;;;;;;5001768;28;88581;-65
2022/04/30 12:00:22;;;;;;;18.03;9.10;;;21.20;45.80;;;;;;5001025;28;90521;-64
2022/04/30 12:02:50;;;;;;;17.93;9.57;;;21.20;45.80;;;;;;5001712;28;90258;-64
2022/04/30 12:05:20;;;;;;;18.37;10.20;;;21.20;45.80;;;;;;5002561;28;88470;-65
2022/04/30 12:07:48;;;;;;;16.87;10.27;;;21.20;45.70;;;;;;5001736;28;88611;-65
2022/04/30 12:10:19;;;;;;;18.73;10.17;;;21.20;45.70;;;;;;5000506;28;91829;-67
2022/04/30 12:12:47;;;;;;;17.13;11.07;;;21.20;45.70;;;;;;5001369;28;90159;-64
2022/04/30 12:15:19;;;;;;;17.43;10.83;;;21.20;45.70;;;;;;5001221;28;88346;-65
2022/04/30 12:24:40;;;;;;;21.30;11.37;;;21.20;45.60;;;;;;5001244;28;88385;-65
2022/04/30 12:26:13;;;;;;;17.40;11.77;;;21.30;45.50;;;;;;4998531;28;88642;-65
2022/04/30 12:28:46;;;;;;;20.40;11.07;;;21.30;45.50;;;;;;4999585;28;88551;-65
2022/04/30 12:31:14;;;;;;;17.13;11.43;;;21.30;45.50;;;;;;5002191;28;91178;-64
2022/04/30 12:33:46;;;;;;;18.87;11.70;;;21.30;45.50;;;;;;4998061;28;88899;-64
2022/04/30 12:36:14;;;;;;;19.33;11.80;;;21.30;45.50;;;;;;4999566;28;88459;-65
2022/04/30 12:38:52;;;;;;;20.13;12.27;;;21.40;45.50;;;;;;5000493;28;88425;-65
2022/04/30 12:41:22;;;;;;;22.47;13.40;;;21.40;45.50;;;;;;4999472;28;90087;-65
2022/04/30 12:43:50;;;;;;;22.13;12.83;;;21.40;45.40;;;;;;5000205;28;90107;-65
2022/04/30 12:46:21;;;;;;;21.20;13.63;;;21.40;45.40;;;;;;4999820;28;88419;-65
2022/04/30 12:48:49;;;;;;;21.47;13.50;;;21.40;45.40;;;;;;5000062;28;88404;-66
2022/04/30 12:51:19;;;;;;;21.33;14.03;;;21.40;45.30;;;;;;5000283;28;90702;-64
2022/04/30 12:53:47;;;;;;;25.10;14.13;;;21.40;45.30;;;;;;5000028;28;90295;-65
2022/04/30 12:56:16;;;;;;;25.17;14.63;;;21.40;45.20;;;;;;4999472;28;88272;-65
2022/04/30 12:58:47;;;;;;;23.63;13.97;;;21.40;45.20;;;;;;4998847;28;88400;-64
2022/04/30 13:01:15;;;;;;;23.93;13.43;;;21.40;45.20;;;;;;5001793;28;90626;-64
2022/04/30 13:03:43;;;;;;;27.60;14.43;;;21.40;45.10;;;;;;4998589;28;92184;-65
2022/04/30 13:06:12;;;;;;;21.00;14.80;;;21.50;45.10;;;;;;4999699;28;88520;-64
2022/04/30 13:14:16;;;;;;;21.87;14.37;;;21.50;44.90;;;;;;5001520;28;93213;-64
2022/04/30 13:16:44;;;;;;;26.73;14.30;;;21.50;44.90;;;;;;5001345;28;88572;-64
2022/04/30 13:19:12;;;;;;;22.50;14.07;;;21.50;44.80;;;;;;4997967;28;88300;-65
2022/04/30 13:21:41;;;;;;;24.20;15.03;;;21.50;44.80;;;;;;5000348;28;90631;-65
2022/04/30 13:24:10;;;;;;;22.97;14.93;;;21.50;44.90;;;;;;5003301;28;88938;-65
2022/04/30 13:26:38;;;;;;;26.27;15.37;;;21.50;44.80;;;;;;5005907;28;88455;-65
2022/04/30 13:29:07;;;;;;;20.87;14.73;;;21.50;44.80;;;;;;5001280;28;88638;-65
2022/04/30 13:31:36;;;;;;;23.23;13.70;;;21.50;44.80;;;;;;5002482;28;89567;-65
2022/04/30 13:34:04;;;;;;;22.93;15.37;;;21.50;44.80;;;;;;5006397;28;89837;-65